Time;durP1;ratioP1;P1;durP2;ratioP2;P2;SDS_P1;SDS_P2;PMS_P1;PMS_P2;Temp;Humidity;BMP_temperature;BMP_pressure;BME280_temperature;BME280_humidity;BME280_pressure;Samples;Min_cycle;Max_cycle;Signal;HPM_P1;HPM_P2
2021/06/02 00:01:59;;;;;;;13.25;7.08;;;;;;;12.80;59.95;101167.56;1744456;80;25873;-74
2021/06/02 00:04:29;;;;;;;10.95;6.58;;;;;;;12.78;60.03;101178.17;1765239;80;25799;-75
2021/06/02 00:06:59;;;;;;;11.40;6.67;;;;;;;12.73;60.16;101176.05;1759327;80;25859;-73
2021/06/02 00:09:29;;;;;;;19.12;8.03;;;;;;;12.73;60.10;101179.23;1727764;80;25810;-74
2021/06/02 00:11:59;;;;;;;11.80;7.00;;;;;;;12.72;60.25;101179.77;1731945;80;27517;-74
2021/06/02 00:14:27;;;;;;;11.48;7.67;;;;;;;12.70;60.23;101175.59;1760440;80;25844;-74
2021/06/02 00:16:56;;;;;;;12.15;7.33;;;;;;;12.67;60.33;101181.33;1766496;80;25852;-74
2021/06/02 00:19:24;;;;;;;12.50;6.80;;;;;;;12.65;60.44;101177.49;1716197;80;26552;-73
2021/06/02 00:21:53;;;;;;;12.15;7.55;;;;;;;12.64;60.48;101180.38;1743708;80;25884;-73
2021/06/02 00:24:21;;;;;;;12.80;7.67;;;;;;;12.60;60.54;101172.33;1757737;80;27454;-72
2021/06/02 00:26:52;;;;;;;13.88;8.43;;;;;;;12.57;60.69;101174.91;1758575;80;25772;-73
2021/06/02 00:29:21;;;;;;;13.55;8.10;;;;;;;12.52;60.71;101173.28;1793204;79;25542;-74
2021/06/02 00:31:49;;;;;;;13.13;8.00;;;;;;;12.49;60.87;101176.85;1765104;80;25603;-74
2021/06/02 00:34:18;;;;;;;11.50;7.58;;;;;;;12.44;60.95;101177.41;1764783;80;26473;-73
2021/06/02 00:36:45;;;;;;;10.13;8.20;;;;;;;12.42;61.13;101179.95;1759461;80;28185;-74
2021/06/02 00:39:14;;;;;;;12.18;6.90;;;;;;;12.36;61.09;101186.88;1734872;80;26529;-73
2021/06/02 00:41:44;;;;;;;17.75;8.00;;;;;;;12.31;61.10;101181.23;1718002;80;25921;-73
2021/06/02 00:44:14;;;;;;;14.05;7.08;;;;;;;12.25;61.29;101178.75;1761952;80;25808;-74
2021/06/02 00:46:43;;;;;;;13.40;8.68;;;;;;;12.19;61.39;101188.89;1756838;80;25788;-74
2021/06/02 00:49:16;;;;;;;14.03;8.40;;;;;;;12.16;61.73;101185.75;1702489;80;27305;-74
2021/06/02 00:51:46;;;;;;;10.55;8.03;;;;;;;12.09;61.89;101178.93;1747665;81;25766;-73
2021/06/02 00:54:11;;;;;;;14.30;7.67;;;;;;;12.01;61.87;101182.20;1695098;83;25902;-74
2021/06/02 00:56:43;;;;;;;10.00;6.95;;;;;;;11.93;61.80;101179.06;1770436;80;26045;-73
2021/06/02 00:59:10;;;;;;;10.78;7.60;;;;;;;11.88;61.89;101181.48;1737421;80;25949;-74
2021/06/02 01:01:38;;;;;;;11.43;8.08;;;;;;;11.84;61.88;101182.86;1738147;80;27600;-74
2021/06/02 01:04:08;;;;;;;16.12;7.97;;;;;;;11.81;62.02;101190.41;1767889;80;25888;-74
2021/06/02 01:06:35;;;;;;;13.15;7.40;;;;;;;11.76;61.91;101190.95;1772180;80;25934;-74
2021/06/02 01:09:07;;;;;;;11.45;7.42;;;;;;;11.72;62.15;101196.89;1717887;80;26156;-73
2021/06/02 01:11:35;;;;;;;9.65;7.40;;;;;;;11.69;62.35;101202.09;1744673;80;25860;-74
2021/06/02 01:14:04;;;;;;;13.10;7.12;;;;;;;11.64;62.28;101204.44;1763236;80;28233;-73
2021/06/02 01:16:37;;;;;;;9.48;6.97;;;;;;;11.61;62.44;101206.16;1766560;80;26519;-73
2021/06/02 01:19:04;;;;;;;13.25;8.10;;;;;;;11.53;62.63;101207.53;1714222;80;25912;-74
2021/06/02 01:21:32;;;;;;;11.55;7.25;;;;;;;11.49;62.63;101202.20;1780563;79;26200;-74
2021/06/02 01:24:00;;;;;;;12.75;7.55;;;;;;;11.47;62.76;101201.55;1753493;80;26636;-73
2021/06/02 01:26:30;;;;;;;11.33;6.95;;;;;;;11.41;62.78;101209.80;1768603;80;27532;-73
2021/06/02 01:28:58;;;;;;;15.63;7.78;;;;;;;11.38;62.98;101207.97;1745870;80;25973;-74
2021/06/02 01:32:09;;;;;;;10.20;7.17;;;;;;;11.36;62.73;101209.49;1741272;80;25725;-73
2021/06/02 01:35:32;;;;;;;12.30;8.30;;;;;;;11.34;62.77;101206.16;1769628;80;25810;-74
2021/06/02 01:38:42;;;;;;;11.73;8.30;;;;;;;11.28;63.15;101218.09;1761967;80;25732;-75
2021/06/02 01:41:42;;;;;;;15.03;7.53;;;;;;;11.23;63.31;101214.59;1767035;80;28149;-74
2021/06/02 01:44:23;;;;;;;14.07;7.80;;;;;;;11.15;63.35;101223.19;1740548;80;25682;-74
2021/06/02 01:47:17;;;;;;;;;;;;;;;11.11;63.59;101225.39;1773044;80;25797;-73
2021/06/02 01:50:25;;;;;;;8.78;7.58;;;;;;;11.04;63.87;101224.41;1781043;79;25698;-74
2021/06/02 01:53:24;;;;;;;13.53;8.35;;;;;;;10.98;63.83;101225.11;1683535;82;25880;-73
2021/06/02 01:56:18;;;;;;;13.13;8.48;;;;;;;10.94;63.95;101221.61;1778245;80;27443;-74
2021/06/02 01:59:10;;;;;;;12.20;7.90;;;;;;;10.92;64.27;101227.65;1765932;80;25904;-73
2021/06/02 02:02:06;;;;;;;17.77;7.85;;;;;;;10.88;64.42;101222.31;1744537;80;26577;-74
2021/06/02 02:04:58;;;;;;;12.00;8.65;;;;;;;10.84;64.46;101223.98;1711972;80;25774;-73
2021/06/02 02:07:57;;;;;;;14.70;8.10;;;;;;;10.78;64.19;101223.34;1767586;80;25770;-74
2021/06/02 02:10:56;;;;;;;12.03;8.15;;;;;;;10.73;64.57;101223.01;1770534;80;27157;-74
2021/06/02 02:13:59;;;;;;;12.05;7.70;;;;;;;10.71;64.58;101222.88;1769761;80;25932;-74
2021/06/02 02:16:38;;;;;;;12.65;8.00;;;;;;;10.64;64.47;101229.42;1769699;80;25323;-73
2021/06/02 02:19:25;;;;;;;11.83;8.03;;;;;;;10.58;64.62;101228.78;1749870;81;25440;-73
2021/06/02 02:22:14;;;;;;;14.60;8.80;;;;;;;10.54;64.77;101234.12;1757660;80;25802;-74
2021/06/02 02:25:19;;;;;;;10.93;8.40;;;;;;;10.52;64.80;101229.44;1768579;80;27556;-73
2021/06/02 02:28:44;;;;;;;11.18;8.68;;;;;;;10.50;65.15;101239.48;1790067;78;25856;-73
2021/06/02 02:31:22;;;;;;;11.03;7.85;;;;;;;10.43;65.31;101239.86;1769173;80;25873;-73
2021/06/02 02:34:20;;;;;;;11.75;8.28;;;;;;;10.32;65.31;101244.22;1770465;80;26405;-73
2021/06/02 02:36:53;;;;;;;13.55;8.80;;;;;;;10.24;65.21;101246.08;1765200;80;26645;-73
2021/06/02 02:39:48;;;;;;;10.03;7.90;;;;;;;10.19;65.73;101247.07;1748675;80;28023;-73
2021/06/02 02:42:42;;;;;;;15.40;8.78;;;;;;;10.16;65.70;101240.20;1773506;80;25789;-73
2021/06/02 02:45:47;;;;;;;10.88;8.63;;;;;;;10.13;65.81;101243.23;1769057;80;25803;-73
2021/06/02 02:48:25;;;;;;;15.03;9.28;;;;;;;10.09;65.56;101254.73;1765673;80;26606;-74
2021/06/02 02:51:01;;;;;;;12.50;8.28;;;;;;;10.06;65.79;101253.75;1674095;83;26281;-73
2021/06/02 02:53:54;;;;;;;14.75;9.33;;;;;;;10.04;65.65;101261.60;1765218;80;27441;-74
2021/06/02 02:56:25;;;;;;;18.27;9.85;;;;;;;10.02;65.86;101260.44;1770921;80;25852;-73
2021/06/02 02:59:22;;;;;;;15.15;7.95;;;;;;;10.00;65.79;101258.92;1717253;80;25890;-73
2021/06/02 03:02:10;;;;;;;13.13;8.70;;;;;;;10.03;65.96;101262.09;1732848;80;26180;-73
2021/06/02 03:04:50;;;;;;;11.40;8.45;;;;;;;10.02;66.01;101263.11;1750402;80;26834;-73
2021/06/02 03:07:19;;;;;;;12.23;7.83;;;;;;;10.05;66.02;101265.97;1773663;79;27582;-73
2021/06/02 03:10:07;;;;;;;10.82;7.85;;;;;;;10.04;65.99;101269.14;1736084;80;26039;-74
2021/06/02 03:12:48;;;;;;;11.05;8.25;;;;;;;10.02;66.05;101269.81;1775317;79;25952;-74
2021/06/02 03:15:43;;;;;;;12.43;8.30;;;;;;;10.00;66.18;101278.51;1762255;80;25930;-73
2021/06/02 03:18:49;;;;;;;10.45;8.23;;;;;;;9.99;66.32;101271.47;1765678;80;25360;-73
2021/06/02 03:21:53;;;;;;;15.48;9.15;;;;;;;10.01;66.48;101277.98;1749855;80;28403;-74
2021/06/02 03:24:47;;;;;;;15.60;9.28;;;;;;;10.00;66.46;101276.33;1773862;80;25895;-73
2021/06/02 03:27:52;;;;;;;13.85;8.98;;;;;;;10.02;66.73;101280.52;1763747;80;25850;-73
2021/06/02 03:30:39;;;;;;;12.35;8.73;;;;;;;10.05;66.82;101288.19;1769572;80;25489;-74
2021/06/02 03:33:42;;;;;;;13.68;9.30;;;;;;;10.17;67.09;101283.88;1737408;80;25803;-74
2021/06/02 03:36:53;;;;;;;13.85;8.85;;;;;;;10.28;66.91;101295.11;1746340;80;28230;-74
2021/06/02 03:39:34;;;;;;;10.82;8.75;;;;;;;10.40;66.97;101294.24;1767570;80;25938;-73
2021/06/02 03:42:41;;;;;;;12.73;9.45;;;;;;;10.44;67.02;101291.06;1769267;78;25867;-72
2021/06/02 03:45:48;;;;;;;13.10;9.28;;;;;;;10.47;67.08;101291.23;1737827;80;26087;-73
2021/06/02 03:48:20;;;;;;;13.08;9.00;;;;;;;10.52;67.34;101292.91;1793446;78;25787;-74
2021/06/02 03:51:32;;;;;;;13.40;8.95;;;;;;;10.60;67.39;101292.89;1769971;78;28052;-73
2021/06/02 03:54:35;;;;;;;15.48;9.53;;;;;;;10.69;67.40;101291.35;1767541;78;25892;-74
2021/06/02 03:57:07;;;;;;;12.07;9.15;;;;;;;10.77;67.42;101292.70;1748808;78;25970;-73
2021/06/02 03:59:45;;;;;;;11.70;9.20;;;;;;;10.86;67.61;101295.66;1742606;80;25984;-73
2021/06/02 04:02:29;;;;;;;12.82;8.23;;;;;;;10.95;67.67;101297.01;1744689;80;25939;-74
2021/06/02 04:05:16;;;;;;;14.90;8.83;;;;;;;11.05;67.65;101299.82;1764358;78;28229;-73
2021/06/02 04:08:17;;;;;;;11.88;7.95;;;;;;;11.11;67.47;101299.13;1770356;78;26483;-74
2021/06/02 04:10:52;;;;;;;13.75;7.97;;;;;;;11.23;67.78;101296.38;1767395;78;26276;-74
2021/06/02 04:13:46;;;;;;;11.73;8.38;;;;;;;11.36;67.84;101299.84;1731951;78;25807;-73
2021/06/02 04:16:18;;;;;;;13.55;9.28;;;;;;;11.46;67.75;101295.94;1766579;80;25756;-73
2021/06/02 04:18:51;;;;;;;15.38;8.93;;;;;;;11.57;67.69;101302.25;1766864;78;27417;-74
2021/06/02 04:21:22;;;;;;;13.30;9.33;;;;;;;11.69;67.68;101305.42;1689692;80;26085;-74
2021/06/02 04:23:49;;;;;;;;;;;;;;;11.81;67.68;101312.55;1703104;80;26505;-76
2021/06/02 04:26:17;;;;;;;16.67;8.78;;;;;;;11.92;67.64;101318.36;1752889;80;26479;-74
2021/06/02 04:28:45;;;;;;;11.60;9.58;;;;;;;12.02;67.71;101315.42;1696784;80;25820;-74
2021/06/02 04:31:14;;;;;;;12.00;8.95;;;;;;;12.12;67.63;101315.54;1729886;80;28298;-74
2021/06/02 04:33:43;;;;;;;11.88;8.68;;;;;;;12.24;67.38;101319.47;1768760;80;25837;-74
2021/06/02 04:36:13;;;;;;;15.68;9.43;;;;;;;12.34;67.36;101325.92;1770747;80;25808;-73
2021/06/02 04:38:41;;;;;;;17.00;9.55;;;;;;;12.43;67.48;101323.50;1761955;80;25830;-73
2021/06/02 04:41:10;;;;;;;16.62;10.90;;;;;;;12.57;67.27;101329.44;1741520;80;26420;-74
2021/06/02 04:43:39;;;;;;;10.53;9.05;;;;;;;12.70;67.15;101325.59;1765265;80;27403;-75
2021/06/02 04:46:08;;;;;;;20.27;10.65;;;;;;;12.85;67.00;101331.83;1736447;81;25805;-74
2021/06/02 04:48:36;;;;;;;16.30;10.50;;;;;;;12.96;67.54;101340.79;1676568;83;25892;-74
2021/06/02 04:51:31;;;;;;;18.55;10.70;;;;;;;13.04;67.10;101343.42;1657019;83;26166;-74
2021/06/02 04:54:26;;;;;;;13.15;9.40;;;;;;;13.13;67.40;101342.31;1659715;83;26744;-75
2021/06/02 04:57:25;;;;;;;15.80;10.43;;;;;;;13.29;67.53;101348.53;1695293;84;28242;-73
2021/06/02 05:00:34;;;;;;;14.87;9.35;;;;;;;13.44;66.80;101345.33;1669987;84;26590;-74
2021/06/02 05:03:29;;;;;;;18.98;9.90;;;;;;;13.60;66.78;101344.59;1694231;84;25898;-75
2021/06/02 05:06:01;;;;;;;14.60;9.58;;;;;;;13.77;66.35;101347.94;1698605;83;26543;-73
2021/06/02 05:08:57;;;;;;;11.00;8.73;;;;;;;13.88;66.69;101354.98;1716893;83;25805;-74
2021/06/02 05:12:10;;;;;;;13.28;9.10;;;;;;;14.00;66.64;101352.65;1685964;83;27687;-73
2021/06/02 05:14:51;;;;;;;15.25;9.33;;;;;;;14.11;65.78;101353.50;1687190;84;25945;-73
2021/06/02 05:18:14;;;;;;;13.78;9.78;;;;;;;14.26;65.29;101354.78;1702671;81;25887;-74
2021/06/02 05:24:13;;;;;;;17.67;10.35;;;;;;;14.57;64.35;101354.80;1698604;81;25915;-74
2021/06/02 05:27:17;;;;;;;15.65;11.00;;;;;;;14.70;63.62;101356.77;1720181;81;27450;-72
2021/06/02 05:30:20;;;;;;;17.57;11.68;;;;;;;14.87;63.60;101362.70;1740223;81;25906;-73
2021/06/02 05:32:58;;;;;;;18.00;11.57;;;;;;;15.03;63.51;101363.27;1720084;83;25829;-73
2021/06/02 05:36:12;;;;;;;16.07;11.57;;;;;;;15.19;63.40;101361.59;1739220;81;26696;-74
2021/06/02 05:39:02;;;;;;;19.73;12.13;;;;;;;15.34;62.55;101374.95;1726377;81;25866;-75
2021/06/02 05:41:54;;;;;;;17.25;11.08;;;;;;;15.45;61.79;101374.44;1654558;84;28521;-73
2021/06/02 05:45:14;;;;;;;15.95;10.48;;;;;;;15.55;61.88;101376.24;1718479;81;26089;-74
2021/06/02 05:48:15;;;;;;;14.10;10.13;;;;;;;15.68;61.63;101379.52;1658992;84;26743;-74
2021/06/02 05:51:13;;;;;;;16.30;10.53;;;;;;;15.75;61.57;101387.14;1686026;83;25853;-75
2021/06/02 05:53:57;;;;;;;15.50;8.93;;;;;;;15.80;61.19;101389.55;1723281;80;26058;-73
2021/06/02 05:56:55;;;;;;;13.32;8.35;;;;;;;15.82;61.63;101395.61;1767124;78;28210;-73
2021/06/02 05:59:34;;;;;;;10.98;8.23;;;;;;;15.81;61.65;101393.93;1739588;80;26536;-74
2021/06/02 06:02:18;;;;;;;18.57;9.18;;;;;;;15.76;61.76;101393.69;1776066;80;25759;-73
2021/06/02 06:05:32;;;;;;;14.53;8.70;;;;;;;15.73;61.69;101399.52;1744274;80;25963;-74
2021/06/02 06:08:19;;;;;;;13.05;8.20;;;;;;;15.68;61.00;101400.62;1775179;80;25832;-73
2021/06/02 06:10:53;;;;;;;13.08;7.53;;;;;;;15.64;61.14;101399.87;1723553;79;28424;-74
2021/06/02 06:13:58;;;;;;;13.60;8.63;;;;;;;15.69;61.87;101406.36;1772836;79;25823;-74
2021/06/02 06:17:13;;;;;;;12.63;8.38;;;;;;;15.77;61.56;101404.83;1743662;80;25810;-74
2021/06/02 06:20:05;;;;;;;14.35;7.67;;;;;;;15.74;61.19;101412.51;1714631;80;27211;-73
2021/06/02 06:23:02;;;;;;;32.15;9.43;;;;;;;15.75;61.56;101411.45;1744340;80;25837;-74
2021/06/02 06:25:47;;;;;;;10.88;7.85;;;;;;;15.77;61.70;101414.79;1773307;80;27462;-73
2021/06/02 06:28:36;;;;;;;12.70;7.37;;;;;;;15.82;61.85;101412.33;1752032;80;25827;-73
2021/06/02 06:31:07;;;;;;;10.53;7.47;;;;;;;15.89;62.08;101413.17;1774611;80;25645;-73
2021/06/02 06:33:36;;;;;;;13.83;7.92;;;;;;;15.96;62.06;101416.74;1743473;80;26097;-73
2021/06/02 06:36:06;;;;;;;17.60;7.17;;;;;;;16.04;62.08;101416.05;1770279;80;26201;-74
2021/06/02 06:39:01;;;;;;;15.47;8.63;;;;;;;16.08;61.76;101414.60;1774560;80;28269;-74
2021/06/02 06:41:30;;;;;;;17.48;9.38;;;;;;;16.17;61.60;101423.36;1771225;80;25958;-74
2021/06/02 06:43:58;;;;;;;12.05;7.12;;;;;;;16.22;61.21;101420.89;1753801;80;25885;-75
2021/06/02 06:46:27;;;;;;;14.53;7.90;;;;;;;16.33;61.54;101422.17;1792051;78;26130;-74
2021/06/02 06:48:58;;;;;;;13.90;7.20;;;;;;;16.43;61.24;101418.03;1727922;80;25733;-74
2021/06/02 06:51:28;;;;;;;13.75;7.62;;;;;;;16.57;59.97;101413.52;1775926;80;28089;-73
2021/06/02 06:53:57;;;;;;;9.45;6.58;;;;;;;16.69;59.77;101417.27;1721618;80;25665;-73
2021/06/02 06:56:27;;;;;;;9.03;6.12;;;;;;;16.78;59.10;101416.87;1746431;78;25587;-73
2021/06/02 06:58:54;;;;;;;7.92;5.92;;;;;;;16.89;59.68;101414.07;1748579;80;25824;-73
2021/06/02 07:01:21;;;;;;;13.15;6.72;;;;;;;17.02;59.61;101415.94;1770024;80;25967;-73
2021/06/02 07:03:50;;;;;;;11.48;6.50;;;;;;;17.10;59.37;101418.42;1745788;80;28182;-73
2021/06/02 07:06:17;;;;;;;13.40;6.03;;;;;;;17.21;57.40;101417.80;1744210;80;26461;-74
2021/06/02 07:08:45;;;;;;;14.58;5.05;;;;;;;17.33;56.83;101418.81;1769346;78;25689;-75
2021/06/02 07:11:14;;;;;;;8.90;5.15;;;;;;;17.44;56.39;101416.81;1743930;80;25816;-76
2021/06/02 07:13:41;;;;;;;8.60;5.08;;;;;;;17.53;55.78;101417.78;1771339;80;26656;-77
2021/06/02 07:16:11;;;;;;;10.38;5.05;;;;;;;17.61;55.60;101422.12;1721238;80;27470;-76
2021/06/02 07:18:44;;;;;;;6.30;4.33;;;;;;;17.71;55.33;101426.05;1775924;79;25753;-77
2021/06/02 07:21:12;;;;;;;11.33;4.92;;;;;;;17.81;55.39;101423.42;1769694;80;25752;-77
2021/06/02 07:23:41;;;;;;;10.43;4.47;;;;;;;17.87;54.56;101426.63;1768599;80;26071;-77
2021/06/02 07:26:09;;;;;;;9.78;5.10;;;;;;;17.96;54.54;101435.67;1721002;80;25332;-74
2021/06/02 07:28:41;;;;;;;5.78;3.47;;;;;;;18.00;54.60;101431.48;1740755;79;27480;-75
2021/06/02 07:31:09;;;;;;;9.55;3.85;;;;;;;18.09;53.69;101434.78;1743467;80;25794;-75
2021/06/02 07:33:37;;;;;;;8.70;3.95;;;;;;;18.18;53.87;101434.81;1771707;80;25771;-75
2021/06/02 07:36:08;;;;;;;5.47;3.70;;;;;;;18.28;53.78;101433.84;1688758;80;25534;-75
2021/06/02 07:38:35;;;;;;;6.42;3.70;;;;;;;18.38;53.16;101435.55;1695420;80;25784;-77
2021/06/02 07:41:02;;;;;;;7.22;3.60;;;;;;;18.49;52.22;101438.97;1735610;80;27511;-76
2021/06/02 07:43:29;;;;;;;7.67;3.30;;;;;;;18.62;51.46;101444.32;1734382;80;26020;-73
2021/06/02 07:45:57;;;;;;;7.28;3.33;;;;;;;18.66;49.63;101437.40;1758834;80;25783;-75
2021/06/02 07:48:24;;;;;;;6.83;3.40;;;;;;;18.74;51.00;101439.00;1730445;80;26617;-74
2021/06/02 07:50:52;;;;;;;7.10;3.42;;;;;;;18.86;50.85;101443.50;1744625;80;26049;-74
2021/06/02 07:53:19;;;;;;;7.50;3.22;;;;;;;18.95;50.82;101435.39;1771577;80;28200;-74
2021/06/02 07:55:46;;;;;;;7.15;3.20;;;;;;;19.06;50.84;101431.96;1715483;80;25975;-74
2021/06/02 07:58:13;;;;;;;7.95;2.98;;;;;;;19.16;50.80;101435.00;1738990;80;25982;-73
2021/06/02 08:00:40;;;;;;;7.30;3.52;;;;;;;19.19;50.42;101436.44;1693042;79;26178;-74
2021/06/02 08:03:07;;;;;;;7.80;3.60;;;;;;;19.16;50.24;101436.36;1765303;79;25811;-75
2021/06/02 08:05:34;;;;;;;5.87;2.83;;;;;;;19.27;50.96;101440.78;1718556;80;28228;-74
2021/06/02 08:08:01;;;;;;;8.30;3.52;;;;;;;19.40;49.48;101440.66;1741579;79;25945;-74
2021/06/02 08:10:28;;;;;;;10.58;3.40;;;;;;;19.42;48.92;101435.86;1704044;80;25856;-74
2021/06/02 08:12:55;;;;;;;5.50;3.37;;;;;;;19.46;47.98;101438.43;1761249;79;26236;-74
2021/06/02 08:15:22;;;;;;;7.08;2.92;;;;;;;19.56;48.06;101436.85;1711788;80;25753;-74
2021/06/02 08:17:49;;;;;;;16.45;3.87;;;;;;;19.70;48.04;101447.03;1743511;80;27530;-74
2021/06/02 08:20:17;;;;;;;5.33;3.55;;;;;;;19.84;47.41;101452.12;1738038;80;26525;-74
2021/06/02 08:22:44;;;;;;;6.75;2.80;;;;;;;19.92;47.22;101449.09;1770109;79;26674;-73
2021/06/02 08:25:15;;;;;;;4.55;2.20;;;;;;;20.02;46.06;101448.54;1714734;80;25811;-74
2021/06/02 08:27:46;;;;;;;7.28;2.90;;;;;;;20.08;45.26;101448.98;1770060;79;25985;-74
2021/06/02 08:30:15;;;;;;;10.65;2.52;;;;;;;20.17;45.02;101446.26;1733158;80;27184;-74
2021/06/02 08:32:43;;;;;;;6.97;2.37;;;;;;;20.18;44.80;101449.30;1754686;80;25880;-74
2021/06/02 08:35:11;;;;;;;3.37;2.12;;;;;;;20.17;45.15;101450.34;1761781;80;26018;-75
2021/06/02 08:37:38;;;;;;;5.55;2.25;;;;;;;20.24;44.63;101447.56;1741626;80;25871;-74
2021/06/02 08:40:07;;;;;;;4.03;2.30;;;;;;;20.36;44.29;101452.00;1741720;80;25883;-74
2021/06/02 08:42:34;;;;;;;4.00;1.98;;;;;;;20.45;43.85;101452.50;1762700;80;27442;-74
2021/06/02 08:45:02;;;;;;;7.20;2.40;;;;;;;20.57;42.58;101447.40;1720309;79;25876;-74
2021/06/02 08:47:29;;;;;;;6.97;2.30;;;;;;;20.70;43.48;101447.73;1723146;82;25871;-74
2021/06/02 08:49:56;;;;;;;6.05;2.08;;;;;;;20.81;42.50;101454.30;1722092;81;26001;-74
2021/06/02 08:52:24;;;;;;;2.55;1.90;;;;;;;20.86;42.13;101444.36;1730431;81;25291;-74
2021/06/02 08:54:55;;;;;;;5.17;2.12;;;;;;;20.98;42.37;101442.47;1671573;83;27532;-74
2021/06/02 08:57:22;;;;;;;7.90;2.20;;;;;;;21.07;41.78;101442.98;1729957;82;25989;-74
2021/06/02 08:59:50;;;;;;;5.78;2.33;;;;;;;21.15;40.34;101435.85;1727396;81;25352;-74
2021/06/02 09:02:17;;;;;;;5.67;2.58;;;;;;;21.16;40.79;101432.05;1739115;82;26442;-74
2021/06/02 09:04:44;;;;;;;5.92;2.35;;;;;;;21.30;41.02;101430.73;1686584;82;26490;-75
2021/06/02 09:07:13;;;;;;;6.30;2.98;;;;;;;21.39;40.47;101438.34;1715764;82;27455;-74
2021/06/02 09:09:41;;;;;;;6.58;2.35;;;;;;;21.48;40.03;101449.19;1701945;82;26203;-75
2021/06/02 09:12:12;;;;;;;4.08;2.60;;;;;;;;;;1737315;81;25748;-75
2021/06/02 09:14:38;;;;;;;5.15;2.20;;;;;;;21.41;39.08;101439.45;1715999;81;26051;-74
2021/06/02 09:17:11;;;;;;;6.87;2.10;;;;;;;21.40;39.87;101440.53;1684744;83;26391;-74
2021/06/02 09:19:43;;;;;;;4.65;1.98;;;;;;;21.38;39.75;101438.02;1709207;82;27620;-74
2021/06/02 09:22:16;;;;;;;7.70;2.00;;;;;;;21.37;38.54;101440.47;1705192;81;26506;-74
2021/06/02 09:24:59;;;;;;;5.92;2.00;;;;;;;21.37;38.84;101436.91;1682264;82;25903;-74
2021/06/02 09:27:57;;;;;;;5.95;1.87;;;;;;;21.35;37.86;101443.97;1698172;82;25902;-74
2021/06/02 09:30:31;;;;;;;5.33;2.10;;;;;;;21.35;38.76;101443.97;1722140;81;25810;-74
2021/06/02 09:33:00;;;;;;;2.35;1.85;;;;;;;21.33;38.65;101440.65;1731446;80;27433;-74
2021/06/02 09:35:42;;;;;;;4.28;2.05;;;;;;;21.31;38.20;101440.06;1683681;81;25570;-74
2021/06/02 09:38:24;;;;;;;2.62;1.95;;;;;;;21.23;38.26;101435.50;1692890;81;25980;-73
2021/06/02 09:40:57;;;;;;;4.37;1.70;;;;;;;21.22;38.26;101436.02;1727269;81;25790;-73
2021/06/02 09:43:33;;;;;;;2.42;2.10;;;;;;;21.17;37.79;101436.45;1725982;81;25817;-74
2021/06/02 09:46:14;;;;;;;5.22;1.90;;;;;;;21.11;38.02;101433.28;1712995;82;27537;-74
2021/06/02 09:48:43;;;;;;;7.15;2.37;;;;;;;21.11;37.95;101429.19;1740532;81;26556;-73
2021/06/02 09:51:33;;;;;;;3.72;1.70;;;;;;;21.17;38.18;101424.19;1736290;81;25832;-73
2021/06/02 09:54:03;;;;;;;7.83;1.77;;;;;;;21.12;38.09;101428.14;1730050;81;26093;-75
2021/06/02 09:56:41;;;;;;;4.40;1.87;;;;;;;21.00;38.34;101438.98;1679330;82;25819;-74
2021/06/02 09:59:10;;;;;;;5.78;2.02;;;;;;;20.90;37.93;101436.02;1697711;81;28154;-74
2021/06/02 10:02:00;;;;;;;4.67;1.95;;;;;;;20.86;37.78;101432.63;1758601;80;25797;-74
2021/06/02 10:04:42;;;;;;;1.80;1.67;;;;;;;20.86;38.43;101438.07;1743169;80;25775;-74
2021/06/02 10:07:18;;;;;;;2.12;1.45;;;;;;;20.99;39.07;101431.05;1685388;83;26410;-74
2021/06/02 10:09:46;;;;;;;6.08;1.95;;;;;;;21.02;37.40;101431.40;1711540;81;25871;-74
2021/06/02 10:12:14;;;;;;;4.67;1.77;;;;;;;20.97;38.02;101436.74;1721025;81;27497;-73
2021/06/02 10:14:54;;;;;;;4.33;1.62;;;;;;;20.92;36.90;101436.60;1700515;83;25832;-74
2021/06/02 10:17:38;;;;;;;6.15;2.40;;;;;;;20.75;37.94;101435.62;1650541;84;25876;-74
2021/06/02 10:20:16;;;;;;;4.15;1.90;;;;;;;20.62;38.33;101441.27;1687640;81;26602;-74
2021/06/02 10:22:42;;;;;;;8.68;2.47;;;;;;;20.49;37.78;101440.93;1712550;82;25848;-74
2021/06/02 10:25:11;;;;;;;4.12;1.75;;;;;;;20.37;38.15;101446.03;1717729;82;27449;-74
2021/06/02 10:27:38;;;;;;;4.58;1.87;;;;;;;20.27;39.24;101449.31;1679809;82;26447;-74
2021/06/02 10:30:08;;;;;;;4.87;2.25;;;;;;;20.19;39.03;101452.30;1710434;82;26587;-74
2021/06/02 10:32:35;;;;;;;7.83;2.45;;;;;;;20.14;39.58;101452.70;1715323;82;25790;-74
2021/06/02 10:35:03;;;;;;;4.10;1.87;;;;;;;20.10;39.72;101443.34;1735546;81;25919;-75
2021/06/02 10:37:32;;;;;;;2.80;2.00;;;;;;;20.06;39.35;101441.58;1665862;82;27463;-74
2021/06/02 10:40:08;;;;;;;3.02;1.80;;;;;;;20.06;39.95;101440.22;1673381;82;25915;-74
2021/06/02 10:42:43;;;;;;;4.10;2.08;;;;;;;20.11;40.13;101434.94;1710753;81;25760;-74
2021/06/02 10:45:32;;;;;;;5.40;1.92;;;;;;;20.20;39.94;101439.05;1701515;83;25867;-74
2021/06/02 10:48:02;;;;;;;4.60;1.70;;;;;;;20.29;38.02;101433.59;1709809;82;26072;-74
2021/06/02 10:50:40;;;;;;;5.80;3.00;;;;;;;20.31;39.04;101434.71;1705712;81;27613;-74
2021/06/02 10:53:24;;;;;;;7.33;1.87;;;;;;;20.29;39.44;101430.03;1679053;83;26201;-74
2021/06/02 10:55:56;;;;;;;3.20;1.65;;;;;;;20.35;39.45;101424.50;1705802;83;25994;-73
2021/06/02 10:58:47;;;;;;;3.10;1.40;;;;;;;20.42;38.19;101422.49;1762178;80;25806;-74
2021/06/02 11:01:20;;;;;;;6.90;1.52;;;;;;;20.50;38.10;101424.91;1715071;82;25966;-74
2021/06/02 11:04:10;;;;;;;2.35;1.35;;;;;;;20.60;39.28;101427.89;1701431;82;28156;-74
2021/06/02 11:06:44;;;;;;;1.80;1.50;;;;;;;20.63;37.97;101417.91;1715903;81;26569;-74
2021/06/02 11:09:13;;;;;;;2.50;1.50;;;;;;;20.64;38.21;101418.72;1710663;81;25929;-74
2021/06/02 11:11:45;;;;;;;2.95;1.42;;;;;;;20.64;37.83;101419.55;1675149;81;25965;-74
2021/06/02 11:14:20;;;;;;;4.90;1.60;;;;;;;20.82;40.20;101421.38;1668870;83;26614;-74
2021/06/02 11:17:03;;;;;;;1.52;1.35;;;;;;;21.02;38.27;101417.78;1709642;83;28245;-74
2021/06/02 11:19:37;;;;;;;3.70;1.80;;;;;;;21.23;39.57;101409.08;1715068;80;26626;-74
2021/06/02 11:22:07;;;;;;;2.58;1.60;;;;;;;21.51;37.75;101417.89;1695942;82;26453;-74
2021/06/02 11:24:39;;;;;;;2.92;1.72;;;;;;;21.67;37.39;101416.31;1686399;83;25782;-74
2021/06/02 11:27:20;;;;;;;4.90;1.32;;;;;;;21.68;35.97;101415.26;1704809;82;25905;-74
2021/06/02 11:29:58;;;;;;;3.08;1.57;;;;;;;21.56;36.30;101423.44;1709440;80;26937;-74
2021/06/02 11:32:29;;;;;;;4.15;1.55;;;;;;;21.44;36.99;101421.27;1714924;80;26425;-74
2021/06/02 11:35:01;;;;;;;;;;;;;;;21.50;36.70;101425.23;1676896;83;26572;-73
2021/06/02 11:37:31;;;;;;;5.60;1.65;;;;;;;21.50;36.12;101425.23;1712739;83;26455;-74
2021/06/02 11:40:00;;;;;;;3.45;1.60;;;;;;;21.51;36.72;101411.89;1638885;83;25821;-74
2021/06/02 11:42:46;;;;;;;3.58;1.50;;;;;;;21.71;36.56;101416.13;1745324;81;28187;-73
2021/06/02 11:45:16;;;;;;;4.75;1.95;;;;;;;21.74;35.92;101423.31;1718797;83;25859;-74
2021/06/02 11:47:50;;;;;;;2.58;1.40;;;;;;;21.77;36.66;101425.54;1689658;83;25851;-74
2021/06/02 11:50:21;;;;;;;4.28;1.72;;;;;;;21.69;36.40;101420.98;1709871;81;26039;-74
2021/06/02 11:53:01;;;;;;;5.70;1.75;;;;;;;21.61;36.04;101414.02;1675223;83;25310;-73
2021/06/02 11:55:30;;;;;;;5.17;1.50;;;;;;;21.56;36.51;101415.79;1729161;81;27480;-74
2021/06/02 11:57:58;;;;;;;4.90;1.98;;;;;;;21.63;37.41;101412.41;1736645;81;25793;-74
2021/06/02 12:00:32;;;;;;;7.03;2.62;;;;;;;21.85;36.11;101414.31;1717170;81;25986;-74
2021/06/02 12:03:03;;;;;;;8.20;1.45;;;;;;;21.94;36.15;101407.38;1677519;83;25839;-74
2021/06/02 12:05:40;;;;;;;4.08;1.60;;;;;;;21.99;35.02;101407.50;1706150;81;26354;-75
2021/06/02 12:08:16;;;;;;;1.85;1.65;;;;;;;22.03;35.42;101414.66;1717126;82;28895;-73
2021/06/02 12:10:49;;;;;;;3.65;1.57;;;;;;;22.06;35.93;101411.45;1695287;81;25831;-74
2021/06/02 12:13:30;;;;;;;3.42;1.95;;;;;;;21.98;35.82;101416.73;1693079;82;25809;-74
2021/06/02 12:16:07;;;;;;;5.25;3.20;;;;;;;21.79;35.49;101415.78;1698690;82;26539;-75
2021/06/02 12:18:45;;;;;;;2.52;1.52;;;;;;;21.67;36.87;101414.42;1721067;81;26484;-74